地図

経路データ

SID SEASON NUMBER BASIN SUBBASIN NAME ISO_TIME NATURE LAT LON WMO_WIND WMO_PRES WMO_AGENCY TRACK_TYPE DIST2LAND LANDFALL IFLAG USA_AGENCY USA_ATCF_ID USA_LAT USA_LON USA_RECORD USA_STATUS USA_WIND USA_PRES USA_SSHS USA_R34_NE USA_R34_SE USA_R34_SW USA_R34_NW USA_R50_NE USA_R50_SE USA_R50_SW USA_R50_NW USA_R64_NE USA_R64_SE USA_R64_SW USA_R64_NW USA_POCI USA_ROCI USA_RMW USA_EYE TOKYO_LAT TOKYO_LON TOKYO_GRADE TOKYO_WIND TOKYO_PRES TOKYO_R50_DIR TOKYO_R50_LONG TOKYO_R50_SHORT TOKYO_R30_DIR TOKYO_R30_LONG TOKYO_R30_SHORT TOKYO_LAND CMA_LAT CMA_LON CMA_CAT CMA_WIND CMA_PRES HKO_LAT HKO_LON HKO_CAT HKO_WIND HKO_PRES NEWDELHI_LAT NEWDELHI_LON NEWDELHI_GRADE NEWDELHI_WIND NEWDELHI_PRES NEWDELHI_CI NEWDELHI_DP NEWDELHI_POCI REUNION_LAT REUNION_LON REUNION_TYPE REUNION_WIND REUNION_PRES REUNION_TNUM REUNION_CI REUNION_RMW REUNION_R34_NE REUNION_R34_SE REUNION_R34_SW REUNION_R34_NW REUNION_R50_NE REUNION_R50_SE REUNION_R50_SW REUNION_R50_NW REUNION_R64_NE REUNION_R64_SE REUNION_R64_SW REUNION_R64_NW BOM_LAT BOM_LON BOM_TYPE BOM_WIND BOM_PRES BOM_TNUM BOM_CI BOM_RMW BOM_R34_NE BOM_R34_SE BOM_R34_SW BOM_R34_NW BOM_R50_NE BOM_R50_SE BOM_R50_SW BOM_R50_NW BOM_R64_NE BOM_R64_SE BOM_R64_SW BOM_R64_NW BOM_ROCI BOM_POCI BOM_EYE BOM_POS_METHOD BOM_PRES_METHOD NADI_LAT NADI_LON NADI_CAT NADI_WIND NADI_PRES WELLINGTON_LAT WELLINGTON_LON WELLINGTON_WIND WELLINGTON_PRES DS824_LAT DS824_LON DS824_STAGE DS824_WIND DS824_PRES TD9636_LAT TD9636_LON TD9636_STAGE TD9636_WIND TD9636_PRES TD9635_LAT TD9635_LON TD9635_WIND TD9635_PRES TD9635_ROCI NEUMANN_LAT NEUMANN_LON NEUMANN_CLASS NEUMANN_WIND NEUMANN_PRES MLC_LAT MLC_LON MLC_CLASS MLC_WIND MLC_PRES USA_GUST BOM_GUST BOM_GUST_PER REUNION_GUST REUNION_GUST_PER USA_SEAHGT USA_SEARAD_NE USA_SEARAD_SE USA_SEARAD_SW USA_SEARAD_NW STORM_SPEED STORM_DIR
1994265N10330 1994 89 NA NA ERNESTO 1994-09-21 18:00:00 TS 10.1000 -29.9000 25 1010 hurdat_atl main 1442 1442 O_____________ hurdat_atl AL071994 10.1000 -29.9000 TD 25 1010 -1 5 318
1994265N10330 1994 89 NA NA ERNESTO 1994-09-21 21:00:00 TS 10.2825 -30.0675 main 1454 1450 P_____________ AL071994 10.2825 -30.0675 TD 25 1010 -1 5 324
1994265N10330 1994 89 NA NA ERNESTO 1994-09-22 00:00:00 TS 10.5000 -30.2000 25 1010 hurdat_atl main 1456 1452 O_____________ hurdat_atl AL071994 10.5000 -30.2000 TD 25 1010 -1 5 338
1994265N10330 1994 89 NA NA ERNESTO 1994-09-22 03:00:00 TS 10.7775 -30.2725 main 1455 1445 P_____________ AL071994 10.7775 -30.2725 TD 27 1009 -1 6 351
1994265N10330 1994 89 NA NA ERNESTO 1994-09-22 06:00:00 TS 11.1000 -30.3000 30 1009 hurdat_atl main 1445 1435 O_____________ hurdat_atl AL071994 11.1000 -30.3000 TD 30 1009 -1 7 356
1994265N10330 1994 89 NA NA ERNESTO 1994-09-22 09:00:00 TS 11.4425 -30.3075 main 1435 1423 P_____________ AL071994 11.4425 -30.3075 TD 32 1007 -1 7 0
1994265N10330 1994 89 NA NA ERNESTO 1994-09-22 12:00:00 TS 11.8000 -30.3000 35 1005 hurdat_atl main 1423 1415 O_____________ hurdat_atl AL071994 11.8000 -30.3000 TS 35 1005 0 7 2
1994265N10330 1994 89 NA NA ERNESTO 1994-09-22 15:00:00 TS 12.1575 -30.2925 main 1412 1405 P_____________ AL071994 12.1575 -30.2925 TS 40 1002 0 7 0
1994265N10330 1994 89 NA NA ERNESTO 1994-09-22 18:00:00 TS 12.5000 -30.3000 45 1000 hurdat_atl main 1405 1399 O_____________ hurdat_atl AL071994 12.5000 -30.3000 TS 45 1000 0 6 355
1994265N10330 1994 89 NA NA ERNESTO 1994-09-22 21:00:00 TS 12.8000 -30.3425 main 1399 1399 P_____________ AL071994 12.8000 -30.3425 TS 47 998 0 6 351
1994265N10330 1994 89 NA NA ERNESTO 1994-09-23 00:00:00 TS 13.1000 -30.4000 50 997 hurdat_atl main 1404 1399 O_____________ hurdat_atl AL071994 13.1000 -30.4000 TS 50 997 0 7 351
1994265N10330 1994 89 NA NA ERNESTO 1994-09-23 03:00:00 TS 13.4500 -30.4500 main 1408 1405 P_____________ AL071994 13.4500 -30.4500 TS 50 997 0 7 352
1994265N10330 1994 89 NA NA ERNESTO 1994-09-23 06:00:00 TS 13.8000 -30.5000 50 998 hurdat_atl main 1405 1402 O_____________ hurdat_atl AL071994 13.8000 -30.5000 TS 50 998 0 7 351
1994265N10330 1994 89 NA NA ERNESTO 1994-09-23 09:00:00 TS 14.1150 -30.5575 main 1412 1410 P_____________ AL071994 14.1150 -30.5575 TS 47 999 0 6 351
1994265N10330 1994 89 NA NA ERNESTO 1994-09-23 12:00:00 TS 14.4000 -30.6000 45 1000 hurdat_atl main 1410 1409 O_____________ hurdat_atl AL071994 14.4000 -30.6000 TS 45 1000 0 5 354
1994265N10330 1994 89 NA NA ERNESTO 1994-09-23 15:00:00 TS 14.6575 -30.6075 main 1409 1408 P_____________ AL071994 14.6575 -30.6075 TS 45 1000 0 5 2
1994265N10330 1994 89 NA NA ERNESTO 1994-09-23 18:00:00 TS 14.9000 -30.6000 45 1001 hurdat_atl main 1408 1408 O_____________ hurdat_atl AL071994 14.9000 -30.6000 TS 45 1001 0 5 1
1994265N10330 1994 89 NA NA ERNESTO 1994-09-23 21:00:00 TS 15.1500 -30.5925 main 1408 1408 P_____________ AL071994 15.1500 -30.5925 TS 42 1002 0 5 2
1994265N10330 1994 89 NA NA ERNESTO 1994-09-24 00:00:00 TS 15.4000 -30.6000 40 1003 hurdat_atl main 1409 1409 O_____________ hurdat_atl AL071994 15.4000 -30.6000 TS 40 1003 0 5 355
1994265N10330 1994 89 NA NA ERNESTO 1994-09-24 03:00:00 TS 15.6425 -30.6276 main 1410 1410 P_____________ AL071994 15.6425 -30.6276 TS 37 1004 0 5 349
1994265N10330 1994 89 NA NA ERNESTO 1994-09-24 06:00:00 TS 15.9000 -30.7000 35 1005 hurdat_atl main 1422 1422 O_____________ hurdat_atl AL071994 15.9000 -30.7000 TS 35 1005 0 6 341
1994265N10330 1994 89 NA NA ERNESTO 1994-09-24 09:00:00 TS 16.2150 -30.8349 main 1435 1435 P_____________ AL071994 16.2150 -30.8349 TS 32 1006 -1 7 334
1994265N10330 1994 89 NA NA ERNESTO 1994-09-24 12:00:00 TS 16.5000 -31.0000 30 1007 hurdat_atl main 1460 1460 O_____________ hurdat_atl AL071994 16.5000 -31.0000 TD 30 1007 -1 6 327
1994265N10330 1994 89 NA NA ERNESTO 1994-09-24 15:00:00 TS 16.6800 -31.1501 main 1483 1483 P_____________ AL071994 16.6800 -31.1501 TD 30 1008 -1 4 316
1994265N10330 1994 89 NA NA ERNESTO 1994-09-24 18:00:00 TS 16.8000 -31.3000 30 1009 hurdat_atl main 1495 1495 O_____________ hurdat_atl AL071994 16.8000 -31.3000 TD 30 1009 -1 4 310
1994265N10330 1994 89 NA NA ERNESTO 1994-09-24 21:00:00 TS 16.9225 -31.4500 main 1507 1507 P_____________ AL071994 16.9225 -31.4500 TD 27 1009 -1 4 305
1994265N10330 1994 89 NA NA ERNESTO 1994-09-25 00:00:00 TS 17.0000 -31.6000 25 1010 hurdat_atl main 1530 1530 O_____________ hurdat_atl AL071994 17.0000 -31.6000 TD 25 1010 -1 3 288
1994265N10330 1994 89 NA NA ERNESTO 1994-09-25 03:00:00 TS 17.0150 -31.7575 main 1551 1551 P_____________ AL071994 17.0150 -31.7575 TD 25 1010 -1 3 270
1994265N10330 1994 89 NA NA ERNESTO 1994-09-25 06:00:00 TS 17.0000 -31.9000 25 1010 hurdat_atl main 1561 1561 O_____________ hurdat_atl AL071994 17.0000 -31.9000 TD 25 1010 -1 2 266
1994265N10330 1994 89 NA NA ERNESTO 1994-09-25 09:00:00 TS 17.0000 -32.0075 main 1572 1572 P_____________ AL071994 17.0000 -32.0075 TD 25 1010 -1 2 270
1994265N10330 1994 89 NA NA ERNESTO 1994-09-25 12:00:00 TS 17.0000 -32.1000 25 1010 hurdat_atl main 1582 1582 O_____________ hurdat_atl AL071994 17.0000 -32.1000 TD 25 1010 -1 1 276
1994265N10330 1994 89 NA NA ERNESTO 1994-09-25 15:00:00 TS 17.0148 -32.1474 main 1582 1582 P_____________ AL071994 17.0148 -32.1474 TD 25 1010 -1 2 270
1994265N10330 1994 89 NA NA ERNESTO 1994-09-25 18:00:00 TS 17.0000 -32.3000 25 1010 hurdat_atl main 1604 1604 O_____________ hurdat_atl AL071994 17.0000 -32.3000 TD 25 1010 -1 5 260
1994265N10330 1994 89 NA NA ERNESTO 1994-09-25 21:00:00 TS 16.9204 -32.6802 main 1644 1644 P_____________ AL071994 16.9204 -32.6802 TD 22 1010 -1 9 257
1994265N10330 1994 89 NA NA ERNESTO 1994-09-26 00:00:00 TS 16.8000 -33.2000 20 1011 hurdat_atl main 1696 O_____________ hurdat_atl AL071994 16.8000 -33.2000 TD 20 1011 -1 10 256

IBTrACS Databaseについて

本データベースは、米国NOAAが公開する1842年以降の世界の熱帯低気圧のベストトラックデータアーカイブInternational Best Track Archive for Climate Stewardship (IBTrACS)を、ウェブで閲覧しやすい形式に変換したものです。

最終更新日:2021-11-26